Time,TemperatureF,DewpointF,PressureIn,WindDirection,WindDirectionDegrees,WindSpeedMPH,WindSpeedGustMPH,Humidity,HourlyPrecipIn,Conditions,Clouds,dailyrainin,SoftwareType,DateUTC
2013-10-27 00:23:00,35.0,30.0,-100.00,WNW,290,2.0,5.0,80,-99.99,,,-99.99,,2013-10-27 05:23:00,
2013-10-27 00:34:00,35.0,30.0,-100.00,WNW,290,2.0,5.0,80,-99.99,,,-99.99,,2013-10-27 05:34:00,
2013-10-27 00:43:00,35.0,30.0,-100.00,WNW,290,2.0,5.0,80,-99.99,,,-99.99,,2013-10-27 05:43:00,
2013-10-27 00:52:00,35.0,30.0,-100.00,WNW,290,2.0,5.0,80,-99.99,,,-99.99,,2013-10-27 05:52:00,
2013-10-27 01:01:00,35.0,30.0,-100.00,WNW,290,2.0,5.0,80,-99.99,,,-99.99,,2013-10-27 06:01:00,
2013-10-27 01:22:00,35.0,30.0,-100.00,WNW,300,1.0,2.0,82,-99.99,,,-99.99,,2013-10-27 06:22:00,
2013-10-27 01:33:00,35.0,30.0,-100.00,WNW,300,1.0,2.0,82,-99.99,,,-99.99,,2013-10-27 06:33:00,
2013-10-27 01:42:00,35.0,30.0,-100.00,WNW,300,1.0,2.0,82,-99.99,,,-99.99,,2013-10-27 06:42:00,
2013-10-27 01:53:00,35.0,30.0,-100.00,WNW,300,1.0,2.0,82,-99.99,,,-99.99,,2013-10-27 06:53:00,
2013-10-27 02:02:00,35.0,30.0,-100.00,WNW,300,1.0,2.0,82,-99.99,,,-99.99,,2013-10-27 07:02:00,
2013-10-27 02:42:00,35.0,31.0,-100.00,SW,225,3.0,7.0,83,-99.99,,,-99.99,,2013-10-27 07:42:00,
2013-10-27 02:52:00,35.0,31.0,-100.00,SW,225,3.0,7.0,83,-99.99,,,-99.99,,2013-10-27 07:52:00,
2013-10-27 03:02:00,35.0,31.0,-100.00,West,280,3.0,6.0,83,-99.99,,,-99.99,,2013-10-27 08:02:00,
2013-10-27 03:03:00,35.0,31.0,-100.00,SW,225,3.0,7.0,83,-99.99,,,-99.99,,2013-10-27 08:03:00,
2013-10-27 03:22:00,35.0,31.0,-100.00,West,280,3.0,6.0,83,-99.99,,,-99.99,,2013-10-27 08:22:00,
2013-10-27 03:32:00,35.0,31.0,-100.00,West,280,3.0,6.0,83,-99.99,,,-99.99,,2013-10-27 08:32:00,
2013-10-27 03:42:00,35.0,31.0,-100.00,West,280,3.0,6.0,83,-99.99,,,-99.99,,2013-10-27 08:42:00,
2013-10-27 03:52:00,35.0,31.0,-100.00,West,280,3.0,6.0,83,-99.99,,,-99.99,,2013-10-27 08:52:00,
2013-10-27 04:22:00,34.0,31.0,-100.00,South,185,1.0,4.0,86,-99.99,,,-99.99,,2013-10-27 09:22:00,
2013-10-27 04:33:00,34.0,31.0,-100.00,South,185,1.0,4.0,86,-99.99,,,-99.99,,2013-10-27 09:33:00,
2013-10-27 04:43:00,34.0,31.0,-100.00,South,185,1.0,4.0,86,-99.99,,,-99.99,,2013-10-27 09:43:00,
2013-10-27 04:54:00,34.0,31.0,-100.00,South,185,1.0,4.0,86,-99.99,,,-99.99,,2013-10-27 09:54:00,
2013-10-27 05:03:00,34.0,31.0,-100.00,South,185,1.0,4.0,86,-99.99,,,-99.99,,2013-10-27 10:03:00,
2013-10-27 05:23:00,33.0,31.0,-100.00,West,275,2.0,7.0,91,-99.99,,,-99.99,,2013-10-27 10:23:00,
2013-10-27 05:33:00,33.0,31.0,-100.00,West,275,2.0,7.0,91,-99.99,,,-99.99,,2013-10-27 10:33:00,
2013-10-27 05:42:00,33.0,31.0,-100.00,West,275,2.0,7.0,91,-99.99,,,-99.99,,2013-10-27 10:42:00,
2013-10-27 05:53:00,33.0,31.0,-100.00,West,275,2.0,7.0,91,-99.99,,,-99.99,,2013-10-27 10:53:00,
2013-10-27 06:03:00,33.0,31.0,-100.00,West,275,2.0,7.0,91,-99.99,,,-99.99,,2013-10-27 11:03:00,
2013-10-27 06:22:00,33.0,31.0,-100.00,WSW,245,2.0,11.0,92,-99.99,,,-99.99,,2013-10-27 11:22:00,
2013-10-27 06:33:00,33.0,31.0,-100.00,WSW,245,2.0,11.0,92,-99.99,,,-99.99,,2013-10-27 11:33:00,
2013-10-27 06:42:00,33.0,31.0,-100.00,WSW,245,2.0,11.0,92,-99.99,,,-99.99,,2013-10-27 11:42:00,
2013-10-27 06:52:00,33.0,31.0,-100.00,WSW,245,2.0,11.0,92,-99.99,,,-99.99,,2013-10-27 11:52:00,
2013-10-27 07:01:00,33.0,31.0,-100.00,WSW,245,2.0,11.0,92,-99.99,,,-99.99,,2013-10-27 12:01:00,
2013-10-27 07:22:00,33.0,30.0,-100.00,West,275,2.0,11.0,90,-99.99,,,-99.99,,2013-10-27 12:22:00,
2013-10-27 07:32:00,33.0,30.0,-100.00,West,275,2.0,11.0,90,-99.99,,,-99.99,,2013-10-27 12:32:00,
2013-10-27 07:42:00,33.0,30.0,-100.00,West,275,2.0,11.0,90,-99.99,,,-99.99,,2013-10-27 12:42:00,
2013-10-27 07:52:00,33.0,30.0,-100.00,West,275,2.0,11.0,90,-99.99,,,-99.99,,2013-10-27 12:52:00,
2013-10-27 08:02:00,33.0,30.0,-100.00,West,275,2.0,11.0,90,-99.99,,,-99.99,,2013-10-27 13:02:00,
2013-10-27 08:22:00,32.0,30.0,-100.00,WSW,245,4.0,9.0,89,-99.99,,,-99.99,,2013-10-27 13:22:00,
2013-10-27 08:32:00,32.0,30.0,-100.00,WSW,245,4.0,9.0,89,-99.99,,,-99.99,,2013-10-27 13:32:00,
2013-10-27 08:42:00,32.0,30.0,-100.00,WSW,245,4.0,9.0,89,-99.99,,,-99.99,,2013-10-27 13:42:00,
2013-10-27 08:52:00,32.0,30.0,-100.00,WSW,245,4.0,9.0,89,-99.99,,,-99.99,,2013-10-27 13:52:00,
2013-10-27 09:22:00,33.0,29.0,-100.00,SW,235,6.0,12.0,84,-99.99,,,-99.99,,2013-10-27 14:22:00,
2013-10-27 09:32:00,33.0,29.0,-100.00,SW,235,6.0,12.0,84,-99.99,,,-99.99,,2013-10-27 14:32:00,
2013-10-27 09:42:00,33.0,29.0,-100.00,SW,235,6.0,12.0,84,-99.99,,,-99.99,,2013-10-27 14:42:00,
2013-10-27 09:52:00,33.0,29.0,-100.00,SW,235,6.0,12.0,84,-99.99,,,-99.99,,2013-10-27 14:52:00,
2013-10-27 10:01:00,33.0,29.0,-100.00,SW,235,6.0,12.0,84,-99.99,,,-99.99,,2013-10-27 15:01:00,
2013-10-27 10:45:00,36.0,29.0,-100.00,WSW,255,5.0,11.0,74,-99.99,,,-99.99,,2013-10-27 15:45:00,
2013-10-27 10:54:00,36.0,29.0,-100.00,WSW,255,5.0,11.0,74,-99.99,,,-99.99,,2013-10-27 15:54:00,
2013-10-27 11:02:00,40.0,27.0,-100.00,WSW,255,7.0,17.0,59,-99.99,,,-99.99,,2013-10-27 16:02:00,
2013-10-27 11:04:00,36.0,29.0,-100.00,WSW,255,5.0,11.0,74,-99.99,,,-99.99,,2013-10-27 16:04:00,
2013-10-27 11:24:00,40.0,27.0,-100.00,WSW,255,7.0,17.0,59,-99.99,,,-99.99,,2013-10-27 16:24:00,
2013-10-27 11:34:00,40.0,27.0,-100.00,WSW,255,7.0,17.0,59,-99.99,,,-99.99,,2013-10-27 16:34:00,
2013-10-27 11:43:00,40.0,27.0,-100.00,WSW,255,7.0,17.0,59,-99.99,,,-99.99,,2013-10-27 16:43:00,
2013-10-27 11:53:00,40.0,27.0,-100.00,WSW,255,7.0,17.0,59,-99.99,,,-99.99,,2013-10-27 16:53:00,
2013-10-27 12:22:00,42.0,26.0,-100.00,WSW,245,4.0,15.0,53,-99.99,,,-99.99,,2013-10-27 17:22:00,
2013-10-27 12:34:00,42.0,26.0,-100.00,WSW,245,4.0,15.0,53,-99.99,,,-99.99,,2013-10-27 17:34:00,
2013-10-27 12:43:00,42.0,26.0,-100.00,WSW,245,4.0,15.0,53,-99.99,,,-99.99,,2013-10-27 17:43:00,
2013-10-27 12:53:00,42.0,26.0,-100.00,WSW,245,4.0,15.0,53,-99.99,,,-99.99,,2013-10-27 17:53:00,
2013-10-27 13:01:00,42.0,26.0,-100.00,WSW,245,4.0,15.0,53,-99.99,,,-99.99,,2013-10-27 18:01:00,
2013-10-27 13:22:00,47.0,26.0,-100.00,WSW,245,5.0,14.0,44,-99.99,,,-99.99,,2013-10-27 18:22:00,
2013-10-27 13:32:00,47.0,26.0,-100.00,WSW,245,5.0,14.0,44,-99.99,,,-99.99,,2013-10-27 18:32:00,
2013-10-27 13:43:00,47.0,26.0,-100.00,WSW,245,5.0,14.0,44,-99.99,,,-99.99,,2013-10-27 18:43:00,
2013-10-27 13:52:00,47.0,26.0,-100.00,WSW,245,5.0,14.0,44,-99.99,,,-99.99,,2013-10-27 18:52:00,
2013-10-27 14:02:00,47.0,26.0,-100.00,WSW,245,5.0,14.0,44,-99.99,,,-99.99,,2013-10-27 19:02:00,
2013-10-27 14:22:00,49.0,25.0,-100.00,West,260,9.0,22.0,39,-99.99,,,-99.99,,2013-10-27 19:22:00,
2013-10-27 14:32:00,49.0,25.0,-100.00,West,260,9.0,22.0,39,-99.99,,,-99.99,,2013-10-27 19:32:00,
2013-10-27 14:42:00,49.0,25.0,-100.00,West,260,9.0,22.0,39,-99.99,,,-99.99,,2013-10-27 19:42:00,
2013-10-27 14:52:00,49.0,25.0,-100.00,West,260,9.0,22.0,39,-99.99,,,-99.99,,2013-10-27 19:52:00,
2013-10-27 15:02:00,49.0,25.0,-100.00,West,260,9.0,22.0,39,-99.99,,,-99.99,,2013-10-27 20:02:00,
2013-10-27 15:43:00,51.0,26.0,-100.00,West,280,7.0,17.0,38,-99.99,,,-99.99,,2013-10-27 20:43:00,
2013-10-27 15:52:00,51.0,26.0,-100.00,West,280,7.0,17.0,38,-99.99,,,-99.99,,2013-10-27 20:52:00,
2013-10-27 16:02:00,51.0,26.0,-100.00,West,280,7.0,17.0,38,-99.99,,,-99.99,,2013-10-27 21:02:00,
2013-10-27 16:04:00,47.0,26.0,-100.00,WNW,295,4.0,11.0,44,-99.99,,,-99.99,,2013-10-27 21:04:00,
2013-10-27 16:22:00,47.0,26.0,-100.00,WNW,295,4.0,11.0,44,-99.99,,,-99.99,,2013-10-27 21:22:00,
2013-10-27 16:34:00,47.0,26.0,-100.00,WNW,295,4.0,11.0,44,-99.99,,,-99.99,,2013-10-27 21:34:00,
2013-10-27 16:44:00,47.0,26.0,-100.00,WNW,295,4.0,11.0,44,-99.99,,,-99.99,,2013-10-27 21:44:00,
2013-10-27 16:54:00,47.0,26.0,-100.00,WNW,295,4.0,11.0,44,-99.99,,,-99.99,,2013-10-27 21:54:00,
2013-10-27 17:03:00,46.0,27.0,-100.00,North,350,4.0,14.0,47,-99.99,,,-99.99,,2013-10-27 22:03:00,
2013-10-27 17:24:00,46.0,27.0,-100.00,North,350,4.0,14.0,47,-99.99,,,-99.99,,2013-10-27 22:24:00,
2013-10-27 17:33:00,46.0,27.0,-100.00,North,350,4.0,14.0,47,-99.99,,,-99.99,,2013-10-27 22:33:00,
2013-10-27 17:43:00,46.0,27.0,-100.00,North,350,4.0,14.0,47,-99.99,,,-99.99,,2013-10-27 22:43:00,
2013-10-27 17:54:00,46.0,27.0,-100.00,North,350,4.0,14.0,47,-99.99,,,-99.99,,2013-10-27 22:54:00,
2013-10-27 18:22:00,42.0,28.0,-100.00,North,350,9.0,22.0,59,-99.99,,,-99.99,,2013-10-27 23:22:00,
2013-10-27 18:33:00,42.0,28.0,-100.00,North,350,9.0,22.0,59,-99.99,,,-99.99,,2013-10-27 23:33:00,
2013-10-27 18:42:00,42.0,28.0,-100.00,North,350,9.0,22.0,59,-99.99,,,-99.99,,2013-10-27 23:42:00,
2013-10-27 18:52:00,42.0,28.0,-100.00,North,350,9.0,22.0,59,-99.99,,,-99.99,,2013-10-27 23:52:00,
2013-10-27 19:02:00,42.0,28.0,-100.00,North,350,9.0,22.0,59,-99.99,,,-99.99,,2013-10-28 00:02:00,
2013-10-27 19:22:00,40.0,29.0,-100.00,North,350,9.0,17.0,64,-99.99,,,-99.99,,2013-10-28 00:22:00,
2013-10-27 19:32:00,40.0,29.0,-100.00,North,350,9.0,17.0,64,-99.99,,,-99.99,,2013-10-28 00:32:00,
2013-10-27 19:43:00,40.0,29.0,-100.00,North,350,9.0,17.0,64,-99.99,,,-99.99,,2013-10-28 00:43:00,
2013-10-27 19:52:00,40.0,29.0,-100.00,North,350,9.0,17.0,64,-99.99,,,-99.99,,2013-10-28 00:52:00,
2013-10-27 20:01:00,40.0,29.0,-100.00,North,350,9.0,17.0,64,-99.99,,,-99.99,,2013-10-28 01:01:00,
2013-10-27 20:42:00,39.0,30.0,-100.00,North,0,11.0,21.0,70,-99.99,,,-99.99,,2013-10-28 01:42:00,
2013-10-27 20:52:00,39.0,30.0,-100.00,North,0,11.0,21.0,70,-99.99,,,-99.99,,2013-10-28 01:52:00,
2013-10-27 21:02:00,39.0,30.0,-100.00,North,0,11.0,21.0,70,-99.99,,,-99.99,,2013-10-28 02:02:00,
2013-10-27 21:22:00,39.0,31.0,-100.00,North,0,8.0,12.0,73,-99.99,,,-99.99,,2013-10-28 02:22:00,
2013-10-27 21:32:00,39.0,31.0,-100.00,North,0,8.0,12.0,73,-99.99,,,-99.99,,2013-10-28 02:32:00,
2013-10-27 21:42:00,39.0,31.0,-100.00,North,0,8.0,12.0,73,-99.99,,,-99.99,,2013-10-28 02:42:00,
2013-10-27 21:53:00,39.0,31.0,-100.00,North,0,8.0,12.0,73,-99.99,,,-99.99,,2013-10-28 02:53:00,
2013-10-27 22:02:00,39.0,31.0,-100.00,North,0,8.0,12.0,73,-99.99,,,-99.99,,2013-10-28 03:02:00,
2013-10-27 22:03:00,37.0,32.0,-100.00,North,10,5.0,10.0,84,-99.99,,,-99.99,,2013-10-28 03:03:00,
2013-10-27 22:22:00,37.0,32.0,-100.00,North,10,5.0,10.0,84,-99.99,,,-99.99,,2013-10-28 03:22:00,
2013-10-27 22:34:00,37.0,32.0,-100.00,North,10,5.0,10.0,84,-99.99,,,-99.99,,2013-10-28 03:34:00,
2013-10-27 22:44:00,37.0,32.0,-100.00,North,10,5.0,10.0,84,-99.99,,,-99.99,,2013-10-28 03:44:00,
2013-10-27 22:54:00,37.0,32.0,-100.00,North,10,5.0,10.0,84,-99.99,,,-99.99,,2013-10-28 03:54:00,
2013-10-27 23:03:00,34.0,32.0,-100.00,NE,45,6.0,13.0,92,-99.99,,,-99.99,,2013-10-28 04:03:00,
2013-10-27 23:24:00,34.0,32.0,-100.00,NE,45,6.0,13.0,92,-99.99,,,-99.99,,2013-10-28 04:24:00,
2013-10-27 23:34:00,34.0,32.0,-100.00,NE,45,6.0,13.0,92,-99.99,,,-99.99,,2013-10-28 04:34:00,
2013-10-27 23:43:00,34.0,32.0,-100.00,NE,45,6.0,13.0,92,-99.99,,,-99.99,,2013-10-28 04:43:00,
2013-10-27 23:53:00,34.0,32.0,-100.00,NE,45,6.0,13.0,92,-99.99,,,-99.99,,2013-10-28 04:53:00,